Time;durP1;ratioP1;P1;durP2;ratioP2;P2;SDS_P1;SDS_P2;PMS_P1;PMS_P2;Temp;Humidity;BMP_temperature;BMP_pressure;BME280_temperature;BME280_humidity;BME280_pressure;Samples;Min_cycle;Max_cycle;Signal;HPM_P1;HPM_P2
2022/08/16 00:00:10;;;;;;;;;8.75;8.75;;;;;;;;5181697;28;8832;-72
2022/08/16 00:02:42;;;;;;;;;7.00;7.00;;;;;;;;5187000;28;8797;-71
2022/08/16 00:05:13;;;;;;;;;9.50;8.75;;;;;;;;5161435;28;8785;-71
2022/08/16 00:07:45;;;;;;;;;8.50;8.50;;;;;;;;5161471;28;8805;-72
2022/08/16 00:10:17;;;;;;;;;7.75;7.75;;;;;;;;5194444;28;9551;-71
2022/08/16 00:12:49;;;;;;;;;10.75;10.75;;;;;;;;5194023;28;9547;-71
2022/08/16 00:15:25;;;;;;;;;13.00;13.00;;;;;;;;5161587;28;8773;-70
2022/08/16 00:17:57;;;;;;;;;10.40;10.40;;;;;;;;5192758;28;8839;-71
2022/08/16 00:20:29;;;;;;;;;11.20;11.20;;;;;;;;5197783;28;8807;-73
2022/08/16 00:23:00;;;;;;;;;10.00;10.00;;;;;;;;5184779;28;8777;-73
2022/08/16 00:25:32;;;;;;;;;11.75;11.75;;;;;;;;5210314;28;8773;-73
2022/08/16 00:28:04;;;;;;;;;8.75;8.75;;;;;;;;5161127;28;8773;-72
2022/08/16 00:30:36;;;;;;;;;7.25;6.00;;;;;;;;5193823;28;8781;-72
2022/08/16 00:33:25;;;;;;;;;3.00;3.00;;;;;;;;5180238;28;8805;-72
2022/08/16 00:35:56;;;;;;;;;8.25;8.25;;;;;;;;5193827;28;8812;-73
2022/08/16 00:38:27;;;;;;;;;11.00;11.00;;;;;;;;5214086;28;8775;-73
2022/08/16 00:41:17;;;;;;;;;13.00;12.20;;;;;;;;5213541;28;8823;-73
2022/08/16 00:44:09;;;;;;;;;8.25;8.25;;;;;;;;5193679;28;8813;-73
2022/08/16 00:46:48;;;;;;;;;11.75;10.50;;;;;;;;5193903;28;8792;-72
2022/08/16 00:49:20;;;;;;;;;13.40;12.40;;;;;;;;5177245;28;8797;-72
2022/08/16 00:51:52;;;;;;;;;15.40;15.40;;;;;;;;5177360;28;8800;-72
2022/08/16 00:54:24;;;;;;;;;18.80;18.20;;;;;;;;5177319;28;8817;-72
2022/08/16 00:56:57;;;;;;;;;12.60;12.60;;;;;;;;5184041;28;9557;-71
2022/08/16 00:59:31;;;;;;;;;17.80;17.60;;;;;;;;5214248;28;8783;-72
2022/08/16 01:02:04;;;;;;;;;17.60;17.00;;;;;;;;5190797;28;8809;-71
2022/08/16 01:04:36;;;;;;;;;17.50;17.50;;;;;;;;5160989;28;8789;-72
2022/08/16 01:07:08;;;;;;;;;30.60;30.00;;;;;;;;5175787;28;8821;-72
2022/08/16 01:09:39;;;;;;;;;25.60;25.60;;;;;;;;5207529;28;8778;-72
2022/08/16 01:12:10;;;;;;;;;19.60;19.60;;;;;;;;5173904;28;8885;-72
2022/08/16 01:14:46;;;;;;;;;26.60;26.60;;;;;;;;5174032;28;8792;-72
2022/08/16 01:17:18;;;;;;;;;26.60;26.60;;;;;;;;5173612;28;8924;-72
2022/08/16 01:19:55;;;;;;;;;29.40;29.40;;;;;;;;5174100;28;8815;-72
2022/08/16 01:22:27;;;;;;;;;31.60;30.40;;;;;;;;5167673;28;8823;-72
2022/08/16 01:25:04;;;;;;;;;22.00;22.00;;;;;;;;5194131;28;9520;-72
2022/08/16 01:27:39;;;;;;;;;40.60;35.20;;;;;;;;5194180;28;8783;-72
2022/08/16 01:30:14;;;;;;;;;40.00;34.40;;;;;;;;5210061;28;8922;-72
2022/08/16 01:32:45;;;;;;;;;41.60;36.20;;;;;;;;5210327;28;8914;-72
2022/08/16 01:35:19;;;;;;;;;44.20;34.20;;;;;;;;5210173;28;8794;-72
2022/08/16 01:37:56;;;;;;;;;35.40;32.80;;;;;;;;5193648;28;8806;-73
2022/08/16 01:40:31;;;;;;;;;40.00;34.20;;;;;;;;5177667;28;8893;-72
2022/08/16 01:43:03;;;;;;;;;34.80;30.80;;;;;;;;5194617;28;8789;-72
2022/08/16 01:45:35;;;;;;;;;31.40;30.20;;;;;;;;5157068;28;8791;-72
2022/08/16 01:48:07;;;;;;;;;28.40;26.80;;;;;;;;5172971;28;8801;-72
2022/08/16 01:50:41;;;;;;;;;22.40;20.40;;;;;;;;5173805;28;8789;-73
2022/08/16 01:53:12;;;;;;;;;22.00;20.60;;;;;;;;5173394;28;8797;-72
2022/08/16 01:56:02;;;;;;;;;13.50;13.50;;;;;;;;5203341;28;8801;-73
2022/08/16 01:58:36;;;;;;;;;14.75;14.75;;;;;;;;5209993;28;8782;-72
2022/08/16 02:01:07;;;;;;;;;14.25;13.75;;;;;;;;5176584;28;8965;-73
2022/08/16 02:03:40;;;;;;;;;14.00;14.00;;;;;;;;5156924;28;8846;-73
2022/08/16 02:06:11;;;;;;;;;13.00;12.25;;;;;;;;5172915;28;8791;-73
2022/08/16 02:08:43;;;;;;;;;14.80;14.80;;;;;;;;5157479;28;8801;-73
2022/08/16 02:11:34;;;;;;;;;21.40;21.40;;;;;;;;5189497;28;8789;-73
2022/08/16 02:14:06;;;;;;;;;16.60;16.60;;;;;;;;5188941;28;8789;-73
2022/08/16 02:16:43;;;;;;;;;16.20;15.40;;;;;;;;5163314;28;8817;-72
2022/08/16 02:19:17;;;;;;;;;15.25;15.25;;;;;;;;5192749;28;8840;-71
2022/08/16 02:21:49;;;;;;;;;20.20;20.20;;;;;;;;5170853;28;8801;-72
2022/08/16 02:24:21;;;;;;;;;20.40;20.40;;;;;;;;5156631;28;8793;-71
2022/08/16 02:26:55;;;;;;;;;15.60;14.60;;;;;;;;5172345;28;8769;-71
2022/08/16 02:29:27;;;;;;;;;21.20;19.40;;;;;;;;5156228;28;8785;-71
2022/08/16 02:32:00;;;;;;;;;14.75;14.50;;;;;;;;5188825;28;8816;-71
2022/08/16 02:34:31;;;;;;;;;14.00;14.00;;;;;;;;5156304;28;8789;-72
2022/08/16 02:37:03;;;;;;;;;15.00;13.25;;;;;;;;5156984;28;8813;-72
2022/08/16 02:39:35;;;;;;;;;15.75;15.75;;;;;;;;5192701;28;8884;-73
2022/08/16 02:42:06;;;;;;;;;13.50;13.50;;;;;;;;5183810;28;8939;-74
2022/08/16 02:44:37;;;;;;;;;10.50;10.00;;;;;;;;5226725;28;8798;-71
2022/08/16 02:47:09;;;;;;;;;8.75;8.75;;;;;;;;5192442;28;8795;-72
2022/08/16 02:49:41;;;;;;;;;10.00;10.00;;;;;;;;5192351;28;8805;-72
2022/08/16 02:52:13;;;;;;;;;11.00;10.00;;;;;;;;5175761;28;8787;-73
2022/08/16 02:55:03;;;;;;;;;10.50;10.50;;;;;;;;5211391;28;8794;-74
2022/08/16 02:57:35;;;;;;;;;16.00;15.75;;;;;;;;5192161;28;8775;-72
2022/08/16 03:00:09;;;;;;;;;18.75;18.75;;;;;;;;5191770;28;8806;-71
2022/08/16 03:02:43;;;;;;;;;15.50;15.50;;;;;;;;5192283;28;8918;-71
2022/08/16 03:05:33;;;;;;;;;17.75;17.75;;;;;;;;5208197;28;8786;-72
2022/08/16 03:08:23;;;;;;;;;18.50;18.50;;;;;;;;5208073;28;9518;-72
2022/08/16 03:10:55;;;;;;;;;25.75;25.75;;;;;;;;5192081;28;8868;-71
2022/08/16 03:13:27;;;;;;;;;23.00;23.00;;;;;;;;5175807;28;8758;-74
2022/08/16 03:15:58;;;;;;;;;24.00;22.00;;;;;;;;5192622;28;8789;-73
2022/08/16 03:18:30;;;;;;;;;18.50;18.50;;;;;;;;5193604;28;8797;-74
2022/08/16 03:21:01;;;;;;;;;19.50;19.50;;;;;;;;5175905;28;8819;-72
2022/08/16 03:23:35;;;;;;;;;22.50;22.50;;;;;;;;5192030;28;8945;-72
2022/08/16 03:26:06;;;;;;;;;18.50;18.50;;;;;;;;5208366;28;8795;-72
2022/08/16 03:28:37;;;;;;;;;14.25;14.25;;;;;;;;5175302;28;8803;-71
2022/08/16 03:31:09;;;;;;;;;11.25;11.00;;;;;;;;5191054;28;8790;-72
2022/08/16 03:33:41;;;;;;;;;14.25;14.25;;;;;;;;5191764;28;8794;-72
2022/08/16 03:36:12;;;;;;;;;11.75;11.75;;;;;;;;5207401;28;8790;-72
2022/08/16 03:38:46;;;;;;;;;15.50;15.50;;;;;;;;5207740;28;9553;-72
2022/08/16 03:41:19;;;;;;;;;19.00;19.00;;;;;;;;5155344;28;8914;-72
2022/08/16 03:43:53;;;;;;;;;15.25;14.25;;;;;;;;5171070;28;8766;-72
2022/08/16 03:46:27;;;;;;;;;19.00;19.00;;;;;;;;5171042;28;8890;-72
2022/08/16 03:48:59;;;;;;;;;22.00;22.00;;;;;;;;5155145;28;8792;-73
2022/08/16 03:51:31;;;;;;;;;16.00;15.75;;;;;;;;5171129;28;8797;-71
2022/08/16 03:54:06;;;;;;;;;13.75;13.75;;;;;;;;5190776;28;8810;-72
2022/08/16 03:56:37;;;;;;;;;8.75;8.75;;;;;;;;5207756;28;8811;-73
2022/08/16 03:59:09;;;;;;;;;10.75;10.75;;;;;;;;5188135;28;8795;-72
2022/08/16 04:01:50;;;;;;;;;11.25;11.25;;;;;;;;5170858;28;9574;-73
2022/08/16 04:04:21;;;;;;;;;16.00;16.00;;;;;;;;5203451;28;8793;-72
2022/08/16 04:06:53;;;;;;;;;12.50;12.50;;;;;;;;5187090;28;8801;-73
2022/08/16 04:09:32;;;;;;;;;12.75;12.25;;;;;;;;5170735;28;8820;-72
2022/08/16 04:12:22;;;;;;;;;13.50;13.50;;;;;;;;5190019;28;8785;-72
2022/08/16 04:14:53;;;;;;;;;11.00;11.00;;;;;;;;5154869;28;8801;-72
2022/08/16 04:17:43;;;;;;;;;8.00;8.00;;;;;;;;5186762;28;8847;-73
2022/08/16 04:20:16;;;;;;;;;7.75;7.75;;;;;;;;5192034;28;8819;-73
2022/08/16 04:22:48;;;;;;;;;5.50;5.50;;;;;;;;5186401;28;8813;-72
2022/08/16 04:25:19;;;;;;;;;4.50;4.50;;;;;;;;5187154;28;8781;-72
2022/08/16 04:27:50;;;;;;;;;7.00;7.00;;;;;;;;5186900;28;8769;-72
2022/08/16 04:30:21;;;;;;;;;12.25;12.25;;;;;;;;5187089;28;8799;-71
2022/08/16 04:32:54;;;;;;;;;13.00;12.25;;;;;;;;5170609;28;8796;-73
2022/08/16 04:35:25;;;;;;;;;10.00;9.50;;;;;;;;5203225;28;9537;-72
2022/08/16 04:37:56;;;;;;;;;11.50;11.50;;;;;;;;5188865;28;8814;-72
2022/08/16 04:40:31;;;;;;;;;14.00;14.00;;;;;;;;5188828;28;8833;-74
2022/08/16 04:43:03;;;;;;;;;9.25;9.25;;;;;;;;5207162;28;8770;-73
2022/08/16 04:45:35;;;;;;;;;8.00;8.00;;;;;;;;5190813;28;8867;-73
2022/08/16 04:48:09;;;;;;;;;9.00;9.00;;;;;;;;5174506;28;8871;-72
2022/08/16 04:50:59;;;;;;;;;21.50;20.75;;;;;;;;5204563;28;9553;-72
2022/08/16 04:53:45;;;;;;;;;13.50;13.50;;;;;;;;5193817;28;8838;-73
2022/08/16 04:56:34;;;;;;;;;19.75;19.00;;;;;;;;5196852;28;8795;-73
2022/08/16 04:59:07;;;;;;;;;6.25;6.25;;;;;;;;5190160;28;8836;-73
2022/08/16 05:01:38;;;;;;;;;3.00;3.00;;;;;;;;5190623;28;8797;-73
2022/08/16 05:04:10;;;;;;;;;6.00;6.00;;;;;;;;5190767;28;8866;-73
2022/08/16 05:06:44;;;;;;;;;23.25;23.25;;;;;;;;5190395;28;8785;-72
2022/08/16 05:09:17;;;;;;;;;11.00;11.00;;;;;;;;5190221;28;8786;-72
2022/08/16 05:11:50;;;;;;;;;5.00;5.00;;;;;;;;5158058;28;8781;-72
2022/08/16 05:14:21;;;;;;;;;9.75;9.75;;;;;;;;5191172;28;8797;-74
2022/08/16 05:16:53;;;;;;;;;15.00;14.75;;;;;;;;5188491;28;8793;-73
2022/08/16 05:19:24;;;;;;;;;15.75;15.75;;;;;;;;5214253;28;8846;-73
2022/08/16 05:22:14;;;;;;;;;6.50;6.50;;;;;;;;5192231;28;8801;-73
2022/08/16 05:24:48;;;;;;;;;7.00;7.00;;;;;;;;5209010;28;8786;-74
2022/08/16 05:27:19;;;;;;;;;6.25;6.25;;;;;;;;5226279;28;9481;-73
2022/08/16 05:29:50;;;;;;;;;6.25;6.25;;;;;;;;5209028;28;8786;-74
2022/08/16 05:32:23;;;;;;;;;8.00;8.00;;;;;;;;5208963;28;8793;-73
2022/08/16 05:34:55;;;;;;;;;13.50;13.50;;;;;;;;5207294;28;8880;-73
2022/08/16 05:37:26;;;;;;;;;14.25;14.25;;;;;;;;5208398;28;8783;-73
2022/08/16 05:40:16;;;;;;;;;5.75;5.75;;;;;;;;5181225;28;8835;-73
2022/08/16 05:42:47;;;;;;;;;12.75;12.75;;;;;;;;5208481;28;8805;-74
2022/08/16 05:45:19;;;;;;;;;9.50;9.50;;;;;;;;5202122;28;8797;-74
2022/08/16 05:47:51;;;;;;;;;7.00;7.00;;;;;;;;5175899;28;8811;-73
2022/08/16 05:50:22;;;;;;;;;7.50;7.50;;;;;;;;5209726;28;8805;-74
2022/08/16 05:52:55;;;;;;;;;5.25;5.25;;;;;;;;5193766;28;8793;-74
2022/08/16 05:55:27;;;;;;;;;8.50;8.50;;;;;;;;5188901;28;8807;-74
2022/08/16 05:57:58;;;;;;;;;3.50;3.50;;;;;;;;5189274;28;8781;-75
2022/08/16 06:00:30;;;;;;;;;8.75;8.75;;;;;;;;5183694;28;8882;-76
2022/08/16 06:03:19;;;;;;;;;4.75;4.75;;;;;;;;5189591;28;8925;-74
2022/08/16 06:06:02;;;;;;;;;7.75;7.75;;;;;;;;5196356;28;8936;-73
2022/08/16 06:08:35;;;;;;;;;6.00;6.00;;;;;;;;5188566;28;8820;-73
2022/08/16 06:11:08;;;;;;;;;5.00;5.00;;;;;;;;5194825;28;8930;-73
2022/08/16 06:13:41;;;;;;;;;6.00;6.00;;;;;;;;5172707;28;8769;-73
2022/08/16 06:16:13;;;;;;;;;6.00;6.00;;;;;;;;5188746;28;8804;-73
2022/08/16 06:18:45;;;;;;;;;7.25;7.25;;;;;;;;5168440;28;8799;-74
2022/08/16 06:21:16;;;;;;;;;4.00;4.00;;;;;;;;5184703;28;8826;-73
2022/08/16 06:23:49;;;;;;;;;4.25;4.25;;;;;;;;5182541;28;8809;-73
2022/08/16 06:26:21;;;;;;;;;4.75;4.75;;;;;;;;5188509;28;8784;-73
2022/08/16 06:28:53;;;;;;;;;4.75;4.75;;;;;;;;5204864;28;8874;-74
2022/08/16 06:31:30;;;;;;;;;5.00;5.00;;;;;;;;5188871;28;8811;-74
2022/08/16 06:34:02;;;;;;;;;9.50;9.50;;;;;;;;5188744;28;8769;-73
2022/08/16 06:36:51;;;;;;;;;7.25;7.25;;;;;;;;5191878;28;8854;-74
2022/08/16 06:39:25;;;;;;;;;3.25;3.25;;;;;;;;5189104;28;8801;-74
2022/08/16 06:42:00;;;;;;;;;6.00;6.00;;;;;;;;5189087;28;8950;-74
2022/08/16 06:44:54;;;;;;;;;6.75;6.75;;;;;;;;5184740;28;8796;-73
2022/08/16 06:47:39;;;;;;;;;4.00;4.00;;;;;;;;5200026;28;8797;-77
2022/08/16 06:50:11;;;;;;;;;6.50;6.50;;;;;;;;5219688;28;8784;-75
2022/08/16 06:52:47;;;;;;;;;3.50;3.50;;;;;;;;5219805;28;8868;-74
2022/08/16 06:55:19;;;;;;;;;5.00;5.00;;;;;;;;5194667;28;8800;-74
2022/08/16 06:58:09;;;;;;;;;6.00;6.00;;;;;;;;5204956;28;8924;-75
2022/08/16 07:00:40;;;;;;;;;6.50;6.50;;;;;;;;5189408;28;8816;-76
2022/08/16 07:03:13;;;;;;;;;5.00;5.00;;;;;;;;5189027;28;8784;-74
2022/08/16 07:05:45;;;;;;;;;9.00;9.00;;;;;;;;5180365;28;8795;-73
2022/08/16 07:08:27;;;;;;;;;6.00;6.00;;;;;;;;5174888;28;8923;-73
2022/08/16 07:10:59;;;;;;;;;5.75;5.75;;;;;;;;5205284;28;8870;-74
2022/08/16 07:13:33;;;;;;;;;6.25;6.25;;;;;;;;5172016;28;8872;-74
2022/08/16 07:16:04;;;;;;;;;6.25;6.25;;;;;;;;5170885;28;8799;-73
2022/08/16 07:18:38;;;;;;;;;3.00;3.00;;;;;;;;5165110;28;8844;-73
2022/08/16 07:21:10;;;;;;;;;6.50;6.50;;;;;;;;5186158;28;8846;-74
2022/08/16 07:23:45;;;;;;;;;8.00;8.00;;;;;;;;5167812;28;8799;-75
2022/08/16 07:26:22;;;;;;;;;2.75;2.75;;;;;;;;5167668;28;8802;-73
2022/08/16 07:28:54;;;;;;;;;5.00;5.00;;;;;;;;5151353;28;9522;-74
2022/08/16 07:31:25;;;;;;;;;4.00;4.00;;;;;;;;5183574;28;8787;-73
2022/08/16 07:34:15;;;;;;;;;7.50;7.50;;;;;;;;5178915;28;8800;-72
2022/08/16 07:36:47;;;;;;;;;3.25;3.25;;;;;;;;5203448;28;8801;-75
2022/08/16 07:39:18;;;;;;;;;5.25;5.25;;;;;;;;5168388;28;8828;-74
2022/08/16 07:41:49;;;;;;;;;4.00;4.00;;;;;;;;5183217;28;8845;-73
2022/08/16 07:44:20;;;;;;;;;1.75;1.75;;;;;;;;5183636;28;8795;-72
2022/08/16 07:46:53;;;;;;;;;4.25;4.25;;;;;;;;5184391;28;8815;-73
2022/08/16 07:49:26;;;;;;;;;8.50;8.50;;;;;;;;5168780;28;8984;-72
2022/08/16 07:51:57;;;;;;;;;4.25;4.25;;;;;;;;5197325;28;8799;-73
2022/08/16 07:54:33;;;;;;;;;5.00;5.00;;;;;;;;5176213;28;8783;-72
2022/08/16 07:57:11;;;;;;;;;3.25;3.25;;;;;;;;5184808;28;8914;-73
2022/08/16 07:59:43;;;;;;;;;6.50;6.50;;;;;;;;5170085;28;8795;-72
2022/08/16 08:02:34;;;;;;;;;5.50;5.50;;;;;;;;5195123;28;8793;-72
2022/08/16 08:05:05;;;;;;;;;5.75;5.75;;;;;;;;5201568;28;8801;-74
2022/08/16 08:07:36;;;;;;;;;5.00;5.00;;;;;;;;5171705;28;8882;-76
2022/08/16 08:10:09;;;;;;;;;6.25;6.25;;;;;;;;5183311;28;8808;-73
2022/08/16 08:12:42;;;;;;;;;7.00;7.00;;;;;;;;5183264;28;8768;-74
2022/08/16 08:15:31;;;;;;;;;5.00;5.00;;;;;;;;5194403;28;8801;-73
2022/08/16 08:18:03;;;;;;;;;6.00;6.00;;;;;;;;5189761;28;9522;-74
2022/08/16 08:20:52;;;;;;;;;5.25;5.25;;;;;;;;5209232;28;8827;-74
2022/08/16 08:23:24;;;;;;;;;6.50;6.50;;;;;;;;5208803;28;8796;-73
2022/08/16 08:26:13;;;;;;;;;3.00;3.00;;;;;;;;5193638;28;8784;-73
2022/08/16 08:28:44;;;;;;;;;4.00;4.00;;;;;;;;5170718;28;8806;-73
2022/08/16 08:31:15;;;;;;;;;2.00;2.00;;;;;;;;5188150;28;8868;-73
2022/08/16 08:33:46;;;;;;;;;4.75;4.75;;;;;;;;5154367;28;8794;-73
2022/08/16 08:36:24;;;;;;;;;6.75;6.75;;;;;;;;5171139;28;8846;-73
2022/08/16 08:38:58;;;;;;;;;6.00;6.00;;;;;;;;5204149;28;8815;-73
2022/08/16 08:41:30;;;;;;;;;6.00;6.00;;;;;;;;5190913;28;8959;-75
2022/08/16 08:44:03;;;;;;;;;15.75;15.75;;;;;;;;5190881;28;9626;-75
2022/08/16 08:46:34;;;;;;;;;20.75;20.75;;;;;;;;5206284;28;8934;-79
2022/08/16 08:49:07;;;;;;;;;8.00;8.00;;;;;;;;5177280;28;8812;-75
2022/08/16 08:51:43;;;;;;;;;6.25;6.25;;;;;;;;5198258;28;8811;-75
2022/08/16 08:54:16;;;;;;;;;11.50;11.50;;;;;;;;5183908;28;8815;-75
2022/08/16 08:56:50;;;;;;;;;6.75;6.75;;;;;;;;5176359;28;9676;-75
2022/08/16 08:59:40;;;;;;;;;7.75;7.75;;;;;;;;5170761;28;8799;-75
2022/08/16 09:02:13;;;;;;;;;5.50;5.50;;;;;;;;5174385;28;9558;-76
2022/08/16 09:04:49;;;;;;;;;7.00;7.00;;;;;;;;5186399;28;8897;-75
2022/08/16 09:07:24;;;;;;;;;5.50;5.50;;;;;;;;5181876;28;8830;-75
2022/08/16 09:09:58;;;;;;;;;5.75;5.75;;;;;;;;5172672;28;8823;-76
2022/08/16 09:12:30;;;;;;;;;5.00;5.00;;;;;;;;5181908;28;8818;-75
2022/08/16 09:15:09;;;;;;;;;6.50;6.50;;;;;;;;5202846;28;8800;-75
2022/08/16 09:17:41;;;;;;;;;12.25;12.25;;;;;;;;5210483;28;8807;-75
2022/08/16 09:20:30;;;;;;;;;7.50;7.50;;;;;;;;5211577;28;9407;-75
2022/08/16 09:23:02;;;;;;;;;10.50;10.50;;;;;;;;5210895;28;8814;-75
2022/08/16 09:25:42;;;;;;;;;6.00;6.00;;;;;;;;5181157;28;8787;-76
2022/08/16 09:28:17;;;;;;;;;4.50;4.50;;;;;;;;5231027;28;8783;-76
2022/08/16 09:30:56;;;;;;;;;6.00;6.00;;;;;;;;5215241;28;8809;-75
2022/08/16 09:33:27;;;;;;;;;6.75;6.75;;;;;;;;5214606;28;8791;-75
2022/08/16 09:35:58;;;;;;;;;4.25;4.25;;;;;;;;5210950;28;8803;-75
2022/08/16 09:38:30;;;;;;;;;4.00;4.00;;;;;;;;5177554;28;8799;-75
2022/08/16 09:41:01;;;;;;;;;2.50;2.50;;;;;;;;5193996;28;8823;-75
2022/08/16 09:43:33;;;;;;;;;5.75;5.75;;;;;;;;5194065;28;9501;-75
2022/08/16 09:46:06;;;;;;;;;27.75;27.50;;;;;;;;5210422;28;8810;-75
2022/08/16 09:48:40;;;;;;;;;5.00;5.00;;;;;;;;5210203;28;8794;-75
2022/08/16 09:51:12;;;;;;;;;3.75;3.75;;;;;;;;5210175;28;8790;-75
2022/08/16 09:53:43;;;;;;;;;5.00;5.00;;;;;;;;5228678;28;8799;-75
2022/08/16 09:56:34;;;;;;;;;11.75;10.75;;;;;;;;5195908;28;8787;-75
2022/08/16 09:59:06;;;;;;;;;3.50;3.50;;;;;;;;5227805;28;8791;-75
2022/08/16 10:01:38;;;;;;;;;3.00;3.00;;;;;;;;5193340;28;8807;-75
2022/08/16 10:04:09;;;;;;;;;4.75;4.75;;;;;;;;5209837;28;8803;-75
2022/08/16 10:06:41;;;;;;;;;3.50;3.50;;;;;;;;5209763;28;8783;-75
2022/08/16 10:09:13;;;;;;;;;2.75;2.75;;;;;;;;5227674;28;9529;-75
2022/08/16 10:14:52;;;;;;;;;11.00;11.00;;;;;;;;5230610;28;8783;-76
2022/08/16 10:17:23;;;;;;;;;4.00;4.00;;;;;;;;5187219;28;8794;-75
2022/08/16 10:19:54;;;;;;;;;11.25;11.25;;;;;;;;5180346;28;10828;-76
2022/08/16 10:22:26;;;;;;;;;5.00;5.00;;;;;;;;5178045;28;8795;-75
2022/08/16 10:24:57;;;;;;;;;3.00;3.00;;;;;;;;5194412;28;8786;-75
2022/08/16 10:27:50;;;;;;;;;6.00;6.00;;;;;;;;5211059;28;9499;-76
2022/08/16 10:30:26;;;;;;;;;7.25;7.25;;;;;;;;5199272;28;8795;-75
2022/08/16 10:32:58;;;;;;;;;4.25;4.25;;;;;;;;5212047;28;8763;-75
2022/08/16 10:35:29;;;;;;;;;5.25;5.25;;;;;;;;5176870;28;8811;-75
2022/08/16 10:38:00;;;;;;;;;5.25;5.25;;;;;;;;5209128;28;8801;-75
2022/08/16 10:40:31;;;;;;;;;2.00;2.00;;;;;;;;5192760;28;8838;-75
2022/08/16 10:43:02;;;;;;;;;4.33;4.33;;;;;;;;5209041;28;8798;-75
2022/08/16 10:45:33;;;;;;;;;3.75;3.75;;;;;;;;5209347;28;9708;-75
2022/08/16 10:48:06;;;;;;;;;6.25;6.25;;;;;;;;5192737;28;8767;-75
2022/08/16 10:50:37;;;;;;;;;3.50;3.50;;;;;;;;5192901;28;8791;-75
2022/08/16 10:53:08;;;;;;;;;3.00;3.00;;;;;;;;5176604;28;8787;-75
2022/08/16 10:55:40;;;;;;;;;4.00;4.00;;;;;;;;5175969;28;8841;-76
2022/08/16 10:58:12;;;;;;;;;2.00;2.00;;;;;;;;5192344;28;9329;-75
2022/08/16 11:00:44;;;;;;;;;13.75;13.75;;;;;;;;5176004;28;8818;-75
2022/08/16 11:03:15;;;;;;;;;5.50;5.50;;;;;;;;5208809;28;8787;-75
2022/08/16 11:05:46;;;;;;;;;4.00;4.00;;;;;;;;5208929;28;8843;-75
2022/08/16 11:08:17;;;;;;;;;3.00;3.00;;;;;;;;5226766;28;9470;-75
2022/08/16 11:10:48;;;;;;;;;2.33;2.33;;;;;;;;5208278;28;8917;-75
2022/08/16 11:13:21;;;;;;;;;3.50;3.25;;;;;;;;5208529;28;8822;-75
2022/08/16 11:15:54;;;;;;;;;5.00;5.00;;;;;;;;5208755;28;8874;-75
2022/08/16 11:18:28;;;;;;;;;4.25;4.25;;;;;;;;5204256;28;8832;-75
2022/08/16 11:21:19;;;;;;;;;5.00;5.00;;;;;;;;5204609;28;8962;-76
2022/08/16 11:23:53;;;;;;;;;0.00;0.00;;;;;;;;5188148;28;8846;-75
2022/08/16 11:26:24;;;;;;;;;2.00;2.00;;;;;;;;5204629;28;8792;-75
2022/08/16 11:28:56;;;;;;;;;4.50;4.50;;;;;;;;5204260;28;8919;-75
2022/08/16 11:31:46;;;;;;;;;3.00;3.00;;;;;;;;5190501;28;8804;-76
2022/08/16 11:34:19;;;;;;;;;4.00;4.00;;;;;;;;5205309;28;8776;-75
2022/08/16 11:36:51;;;;;;;;;0.75;0.75;;;;;;;;5187736;28;8795;-78
2022/08/16 11:39:26;;;;;;;;;10.50;10.50;;;;;;;;5187442;28;9657;-78
2022/08/16 11:41:57;;;;;;;;;3.00;3.00;;;;;;;;5187897;28;8828;-77
2022/08/16 11:44:28;;;;;;;;;3.25;3.25;;;;;;;;5188013;28;8808;-78
2022/08/16 11:46:59;;;;;;;;;2.33;2.33;;;;;;;;5204352;28;8816;-78
2022/08/16 11:49:30;;;;;;;;;1.75;1.75;;;;;;;;5171193;28;10881;-78
2022/08/16 11:52:01;;;;;;;;;2.25;2.25;;;;;;;;5189726;28;8811;-78
2022/08/16 11:54:32;;;;;;;;;5.00;5.00;;;;;;;;5167345;28;8798;-78
2022/08/16 11:57:04;;;;;;;;;1.00;1.00;;;;;;;;5184777;28;8802;-80
2022/08/16 11:59:36;;;;;;;;;5.00;5.00;;;;;;;;5187178;28;8797;-78
2022/08/16 12:02:08;;;;;;;;;2.75;2.75;;;;;;;;5202725;28;9532;-78
2022/08/16 12:04:38;;;;;;;;;40.60;35.60;;;;;;;;5203553;28;8784;-78
2022/08/16 12:07:10;;;;;;;;;4.50;4.50;;;;;;;;5203986;28;8807;-78
2022/08/16 12:09:40;;;;;;;;;1.00;1.00;;;;;;;;5187222;28;8793;-78
2022/08/16 12:12:11;;;;;;;;;2.00;2.00;;;;;;;;5166866;28;8814;-78
2022/08/16 12:15:01;;;;;;;;;4.75;4.75;;;;;;;;5183633;28;10187;-79
2022/08/16 12:17:33;;;;;;;;;12.50;12.50;;;;;;;;5192776;28;9322;-78
2022/08/16 12:20:08;;;;;;;;;5.75;5.75;;;;;;;;5224608;28;8803;-80
2022/08/16 12:22:39;;;;;;;;;43.40;38.40;;;;;;;;5207948;28;8821;-81
2022/08/16 12:25:12;;;;;;;;;2.75;2.75;;;;;;;;5207292;28;9547;-82
2022/08/16 12:27:45;;;;;;;;;4.25;4.25;;;;;;;;5205681;28;8783;-78
2022/08/16 12:30:37;;;;;;;;;5.50;5.50;;;;;;;;5207364;28;8787;-78
2022/08/16 12:33:09;;;;;;;;;5.50;5.50;;;;;;;;5173237;28;9554;-79
2022/08/16 12:35:41;;;;;;;;;19.75;19.75;;;;;;;;5188511;28;8783;-79
2022/08/16 12:38:13;;;;;;;;;10.25;10.25;;;;;;;;5207724;28;8783;-80
2022/08/16 12:41:03;;;;;;;;;4.50;4.50;;;;;;;;5182116;28;8830;-79
2022/08/16 12:43:35;;;;;;;;;0.25;0.25;;;;;;;;5207788;28;8782;-79
2022/08/16 12:46:06;;;;;;;;;17.75;17.75;;;;;;;;5207293;28;8793;-78
2022/08/16 12:51:31;;;;;;;;;2.00;2.00;;;;;;;;5224371;28;8798;-79
2022/08/16 12:54:04;;;;;;;;;3.00;3.00;;;;;;;;5225445;28;8790;-79
2022/08/16 12:56:53;;;;;;;;;5.50;5.50;;;;;;;;5179891;28;8866;-79
2022/08/16 12:59:42;;;;;;;;;6.50;6.50;;;;;;;;5204790;28;8815;-79
2022/08/16 13:02:13;;;;;;;;;5.25;5.25;;;;;;;;5187276;28;8805;-79
2022/08/16 13:04:44;;;;;;;;;11.25;11.25;;;;;;;;5158094;28;8805;-79
2022/08/16 13:07:16;;;;;;;;;3.00;3.00;;;;;;;;5175047;28;8785;-79
2022/08/16 13:09:53;;;;;;;;;3.00;3.00;;;;;;;;5175266;28;8773;-78
2022/08/16 13:12:26;;;;;;;;;18.00;17.25;;;;;;;;5178622;28;8810;-78
2022/08/16 13:14:58;;;;;;;;;8.50;8.50;;;;;;;;5194161;28;8787;-78
2022/08/16 13:17:29;;;;;;;;;32.40;31.00;;;;;;;;5176222;28;8797;-78
2022/08/16 13:20:00;;;;;;;;;12.25;12.25;;;;;;;;5191206;28;8805;-79
2022/08/16 13:22:31;;;;;;;;;4.33;4.33;;;;;;;;5174394;28;8895;-79
2022/08/16 13:25:04;;;;;;;;;2.50;2.50;;;;;;;;5190712;28;12238;-79
2022/08/16 13:27:54;;;;;;;;;3.00;3.00;;;;;;;;5190880;28;8819;-79
2022/08/16 13:30:26;;;;;;;;;30.50;29.50;;;;;;;;5193132;28;8838;-79
2022/08/16 13:33:17;;;;;;;;;26.75;26.75;;;;;;;;5210879;28;8779;-79
2022/08/16 13:36:08;;;;;;;;;32.25;30.75;;;;;;;;5200443;28;8795;-79
2022/08/16 13:38:39;;;;;;;;;9.50;9.50;;;;;;;;5233978;28;8814;-80
2022/08/16 13:41:11;;;;;;;;;46.60;39.60;;;;;;;;5216177;28;8857;-79
2022/08/16 13:43:42;;;;;;;;;23.75;23.75;;;;;;;;5228874;28;8786;-79
2022/08/16 13:46:13;;;;;;;;;50.25;42.25;;;;;;;;5194214;28;8783;-78
2022/08/16 13:48:45;;;;;;;;;16.50;16.50;;;;;;;;5210215;28;8782;-79
2022/08/16 13:51:17;;;;;;;;;25.60;25.40;;;;;;;;5210573;28;8797;-78
2022/08/16 13:53:51;;;;;;;;;4.75;4.75;;;;;;;;5205651;28;9504;-78
2022/08/16 13:56:41;;;;;;;;;35.60;33.20;;;;;;;;5210041;28;8803;-78
2022/08/16 13:59:13;;;;;;;;;68.75;56.50;;;;;;;;5199417;28;8781;-78
2022/08/16 14:01:44;;;;;;;;;12.75;12.50;;;;;;;;5174153;28;8817;-77
2022/08/16 14:04:15;;;;;;;;;66.00;56.00;;;;;;;;5162017;28;8778;-77
2022/08/16 14:06:46;;;;;;;;;8.75;8.75;;;;;;;;5195785;28;8820;-78
2022/08/16 14:09:36;;;;;;;;;22.50;22.50;;;;;;;;5227135;28;8879;-76
2022/08/16 14:12:31;;;;;;;;;61.20;50.40;;;;;;;;5198972;28;8809;-75
2022/08/16 14:15:04;;;;;;;;;4.75;4.75;;;;;;;;5194450;28;8868;-78
2022/08/16 14:17:35;;;;;;;;;5.75;5.75;;;;;;;;5207952;28;8827;-79
2022/08/16 14:20:07;;;;;;;;;50.20;43.00;;;;;;;;5214837;28;9630;-77
2022/08/16 14:22:39;;;;;;;;;81.80;80.00;;;;;;;;5173451;28;8802;-78
2022/08/16 14:25:16;;;;;;;;;72.60;68.00;;;;;;;;5206460;28;8807;-77
2022/08/16 14:27:50;;;;;;;;;8.25;8.25;;;;;;;;5208082;28;8856;-78
2022/08/16 14:30:21;;;;;;;;;8.25;8.25;;;;;;;;5191382;28;9000;-77
2022/08/16 14:32:53;;;;;;;;;38.60;33.80;;;;;;;;5190696;28;8868;-76
2022/08/16 14:35:28;;;;;;;;;24.75;24.75;;;;;;;;5193762;28;8793;-77
2022/08/16 14:37:59;;;;;;;;;15.25;15.25;;;;;;;;5212979;28;8939;-77
2022/08/16 14:40:31;;;;;;;;;30.80;29.40;;;;;;;;5206954;28;8908;-79
2022/08/16 14:43:03;;;;;;;;;26.25;26.25;;;;;;;;5207462;28;9506;-76
2022/08/16 14:45:34;;;;;;;;;39.20;34.40;;;;;;;;5190548;28;8934;-78
2022/08/16 14:48:05;;;;;;;;;50.80;42.40;;;;;;;;5190583;28;8913;-78
2022/08/16 14:50:38;;;;;;;;;81.00;79.20;;;;;;;;5190637;28;8811;-78
2022/08/16 14:53:10;;;;;;;;;77.75;75.50;;;;;;;;5194556;28;8978;-78
2022/08/16 14:55:41;;;;;;;;;11.75;11.75;;;;;;;;5170230;28;8793;-77
2022/08/16 14:58:12;;;;;;;;;30.00;28.80;;;;;;;;5196698;28;8799;-78
2022/08/16 15:00:42;;;;;;;;;13.00;13.00;;;;;;;;5206798;28;8819;-78
2022/08/16 15:03:13;;;;;;;;;24.00;23.75;;;;;;;;5224501;28;8787;-78
2022/08/16 15:05:45;;;;;;;;;6.00;6.00;;;;;;;;5224571;28;8854;-80
2022/08/16 15:08:34;;;;;;;;;20.75;20.25;;;;;;;;5204898;28;8818;-75
2022/08/16 15:11:05;;;;;;;;;17.67;17.67;;;;;;;;5171093;28;8805;-76
2022/08/16 15:13:36;;;;;;;;;23.25;23.25;;;;;;;;5171196;28;11411;-76
2022/08/16 15:16:07;;;;;;;;;41.20;35.60;;;;;;;;5171523;28;9566;-77
2022/08/16 15:18:38;;;;;;;;;29.25;28.25;;;;;;;;5174577;28;8845;-79
2022/08/16 15:21:28;;;;;;;;;33.00;30.50;;;;;;;;5184159;28;8905;-78
2022/08/16 15:24:18;;;;;;;;;22.00;22.00;;;;;;;;5184404;28;8799;-79
2022/08/16 15:26:48;;;;;;;;;33.67;30.67;;;;;;;;5147073;28;8809;-78
2022/08/16 15:29:22;;;;;;;;;23.50;23.50;;;;;;;;5133905;28;11648;-76
2022/08/16 15:31:57;;;;;;;;;41.20;35.80;;;;;;;;5163629;28;8785;-78